createdAt,value
2022-08-02T00:01:06.489Z,18.39
2022-08-02T00:03:35.287Z,18.36
2022-08-02T00:06:04.563Z,18.37
2022-08-02T00:08:33.407Z,18.35
2022-08-02T00:11:02.043Z,18.35
2022-08-02T00:13:31.360Z,18.31
2022-08-02T00:16:00.238Z,18.39
2022-08-02T00:18:28.909Z,18.26
2022-08-02T00:20:57.653Z,18.28
2022-08-02T00:23:26.436Z,18.31
2022-08-02T00:25:56.023Z,18.25
2022-08-02T00:28:27.966Z,18.19
2022-08-02T00:30:57.010Z,18.17
2022-08-02T00:34:26.873Z,18.23
2022-08-02T00:35:59.842Z,18.10
2022-08-02T00:38:28.683Z,18.12
2022-08-02T00:40:58.272Z,17.99
2022-08-02T00:43:28.223Z,17.98
2022-08-02T00:46:02.570Z,17.98
2022-08-02T00:48:28.736Z,17.89
2022-08-02T00:50:58.767Z,17.75
2022-08-02T00:53:27.427Z,17.80
2022-08-02T00:55:56.320Z,17.70
2022-08-02T00:58:25.151Z,17.62
2022-08-02T01:00:56.671Z,17.56
2022-08-02T01:03:26.067Z,17.50
2022-08-02T01:06:11.002Z,17.44
2022-08-02T01:08:31.864Z,17.36
2022-08-02T01:11:00.531Z,17.27
2022-08-02T01:13:29.519Z,17.21
2022-08-02T01:16:01.217Z,17.17
2022-08-02T01:18:35.745Z,17.14
2022-08-02T01:21:25.540Z,17.09
2022-08-02T01:24:08.498Z,17.04
2022-08-02T01:26:54.731Z,16.92
2022-08-02T01:29:35.392Z,16.74
2022-08-02T01:32:15.994Z,16.76
2022-08-02T01:35:03.045Z,16.62
2022-08-02T01:37:39.140Z,16.49
2022-08-02T01:40:13.690Z,16.35
2022-08-02T01:42:45.358Z,16.23
2022-08-02T01:45:16.170Z,16.27
2022-08-02T01:47:46.757Z,16.21
2022-08-02T01:50:19.511Z,16.25
2022-08-02T01:52:53.471Z,16.30
2022-08-02T01:55:35.076Z,16.24
2022-08-02T01:58:01.969Z,16.24
2022-08-02T02:00:33.481Z,16.28
2022-08-02T02:03:03.743Z,16.32
2022-08-02T02:05:33.981Z,16.27
2022-08-02T02:08:05.931Z,16.27
2022-08-02T02:10:38.644Z,16.18
2022-08-02T02:13:10.549Z,16.29
2022-08-02T02:15:42.201Z,16.31
2022-08-02T02:18:14.044Z,16.31
2022-08-02T02:20:44.157Z,16.28
2022-08-02T02:23:14.864Z,16.19
2022-08-02T02:25:48.441Z,16.16
2022-08-02T02:28:24.624Z,16.21
2022-08-02T02:33:34.537Z,16.08
2022-08-02T02:36:04.615Z,15.96
2022-08-02T02:38:37.938Z,15.86
2022-08-02T02:41:08.296Z,15.80
2022-08-02T02:43:39.214Z,15.80
2022-08-02T02:46:09.512Z,15.92
2022-08-02T02:48:38.811Z,15.91
2022-08-02T02:51:14.129Z,15.86
2022-08-02T02:54:30.938Z,15.87
2022-08-02T02:56:10.741Z,15.94
2022-08-02T02:58:40.839Z,15.90
2022-08-02T03:01:55.336Z,16.00
2022-08-02T03:04:05.237Z,16.04
2022-08-02T03:06:35.422Z,15.96
2022-08-02T03:09:04.399Z,16.07
2022-08-02T03:11:34.185Z,16.07
2022-08-02T03:14:05.646Z,16.02
2022-08-02T03:16:34.687Z,16.07
2022-08-02T03:19:07.355Z,16.04
2022-08-02T03:21:36.135Z,15.97
2022-08-02T03:24:05.186Z,16.06
2022-08-02T03:26:34.037Z,16.10
2022-08-02T03:29:10.281Z,16.17
2022-08-02T03:31:33.895Z,16.19
2022-08-02T03:34:03.818Z,16.18
2022-08-02T03:36:34.192Z,16.18
2022-08-02T03:39:07.666Z,16.16
2022-08-02T03:41:38.324Z,16.07
2022-08-02T03:44:08.930Z,16.02
2022-08-02T03:46:39.868Z,16.16
2022-08-02T03:49:12.965Z,16.21
2022-08-02T03:51:41.990Z,16.86
2022-08-02T03:54:10.976Z,18.55
2022-08-02T03:56:40.559Z,19.71
2022-08-02T03:59:11.327Z,20.46
2022-08-02T04:01:40.355Z,20.41
2022-08-02T04:04:09.623Z,21.27
2022-08-02T04:06:40.221Z,21.33
2022-08-02T04:09:09.117Z,21.33
2022-08-02T04:11:38.216Z,21.91
2022-08-02T04:14:12.304Z,22.45
2022-08-02T04:16:46.618Z,22.41
2022-08-02T04:19:31.247Z,23.16
2022-08-02T04:22:04.929Z,24.02
2022-08-02T04:24:45.337Z,24.34
2022-08-02T04:27:49.349Z,24.85
2022-08-02T04:29:48.984Z,24.18
2022-08-02T04:32:19.118Z,25.06
2022-08-02T04:35:17.633Z,24.75
2022-08-02T04:37:18.756Z,22.41
2022-08-02T04:39:48.369Z,20.13
2022-08-02T04:42:29.477Z,19.35
2022-08-02T04:44:58.767Z,18.72
2022-08-02T04:48:03.410Z,18.44
2022-08-02T04:50:02.853Z,18.39
2022-08-02T04:52:33.841Z,18.31
2022-08-02T04:55:02.973Z,18.19
2022-08-02T04:57:53.072Z,18.24
2022-08-02T05:00:21.760Z,18.33
2022-08-02T05:02:57.674Z,18.23
2022-08-02T05:05:29.429Z,18.23
2022-08-02T05:09:35.734Z,18.27
2022-08-02T05:11:04.890Z,18.35
2022-08-02T05:13:57.428Z,18.47
2022-08-02T05:16:07.191Z,18.52
2022-08-02T05:18:45.301Z,18.66
2022-08-02T05:21:22.839Z,18.64
2022-08-02T05:23:51.868Z,18.58
2022-08-02T05:26:27.242Z,18.75
2022-08-02T05:28:55.989Z,18.76
2022-08-02T05:31:26.492Z,18.79
2022-08-02T05:33:57.173Z,18.96
2022-08-02T05:36:29.850Z,19.02
2022-08-02T05:39:04.772Z,19.07
2022-08-02T05:41:33.535Z,19.11
2022-08-02T05:44:07.330Z,19.19
2022-08-02T05:46:37.778Z,19.25
2022-08-02T05:49:11.839Z,19.43
2022-08-02T05:51:55.880Z,19.41
2022-08-02T05:54:33.022Z,19.51
2022-08-02T05:57:08.982Z,19.47
2022-08-02T05:59:55.521Z,19.57
2022-08-02T06:02:33.055Z,19.77
2022-08-02T06:05:07.664Z,19.91
2022-08-02T06:07:42.710Z,19.87
2022-08-02T06:10:15.887Z,20.00
2022-08-02T06:13:03.092Z,20.28
2022-08-02T06:15:35.582Z,20.43
2022-08-02T06:18:06.435Z,20.51
2022-08-02T06:20:44.441Z,20.67
2022-08-02T06:23:16.735Z,20.81
2022-08-02T06:25:50.818Z,20.98
2022-08-02T06:28:22.947Z,20.96
2022-08-02T06:30:53.695Z,21.16
2022-08-02T06:33:24.024Z,21.36
2022-08-02T06:36:11.229Z,21.40
2022-08-02T06:38:49.833Z,21.56
2022-08-02T06:41:18.702Z,21.58
2022-08-02T06:44:33.781Z,21.59
2022-08-02T06:47:11.332Z,21.73
2022-08-02T06:49:09.509Z,21.85
2022-08-02T06:51:44.586Z,22.03
2022-08-02T06:54:13.902Z,22.20
2022-08-02T06:56:50.928Z,22.27
2022-08-02T06:59:21.097Z,22.36
2022-08-02T07:01:57.298Z,22.43
2022-08-02T07:04:28.853Z,22.69
2022-08-02T07:07:01.836Z,22.80
2022-08-02T07:09:31.858Z,22.77
2022-08-02T07:12:03.723Z,22.89
2022-08-02T07:14:32.641Z,22.85
2022-08-02T07:17:03.570Z,22.89
2022-08-02T07:19:37.407Z,22.95
2022-08-02T07:22:08.031Z,23.04
2022-08-02T07:24:38.869Z,23.09
2022-08-02T07:27:16.203Z,23.08
2022-08-02T07:29:49.062Z,23.31
2022-08-02T07:32:24.613Z,23.31
2022-08-02T07:34:56.052Z,23.28
2022-08-02T07:37:53.718Z,23.41
2022-08-02T07:40:00.116Z,23.35
2022-08-02T07:45:21.236Z,23.53
2022-08-02T07:47:56.712Z,23.58
2022-08-02T07:50:28.632Z,23.71
2022-08-02T07:53:00.713Z,23.58
2022-08-02T07:55:39.319Z,23.50
2022-08-02T07:58:14.786Z,23.61
2022-08-02T08:00:51.677Z,23.55
2022-08-02T08:03:23.349Z,23.64
2022-08-02T08:05:53.915Z,23.46
2022-08-02T08:08:27.636Z,23.49
2022-08-02T08:10:57.969Z,23.99
2022-08-02T08:13:28.783Z,24.01
2022-08-02T08:15:57.695Z,24.01
2022-08-02T08:18:27.834Z,24.02
2022-08-02T08:21:00.887Z,24.14
2022-08-02T08:23:38.209Z,24.26
2022-08-02T08:28:45.669Z,24.83
2022-08-02T08:31:18.944Z,24.89
2022-08-02T08:33:49.827Z,24.60
2022-08-02T08:36:20.956Z,24.70
2022-08-02T08:38:55.752Z,24.80
2022-08-02T08:41:38.005Z,24.88
2022-08-02T08:44:15.623Z,24.80
2022-08-02T08:46:46.932Z,25.10
2022-08-02T08:49:28.539Z,25.26
2022-08-02T08:52:03.697Z,25.49
2022-08-02T08:54:39.357Z,25.77
2022-08-02T08:57:13.727Z,25.64
2022-08-02T08:59:42.407Z,25.53
2022-08-02T09:02:19.613Z,25.40
2022-08-02T09:04:49.328Z,25.78
2022-08-02T09:07:22.071Z,25.89
2022-08-02T09:09:52.946Z,25.30
2022-08-02T09:12:30.467Z,25.21
2022-08-02T09:15:14.274Z,25.45
2022-08-02T09:17:42.802Z,25.60
2022-08-02T09:20:19.620Z,25.93
2022-08-02T09:23:16.217Z,25.81
2022-08-02T09:25:57.138Z,26.11
2022-08-02T09:28:22.849Z,26.00
2022-08-02T09:30:51.749Z,25.97
2022-08-02T09:33:30.652Z,26.18
2022-08-02T09:36:22.873Z,26.28
2022-08-02T09:39:01.009Z,26.52
2022-08-02T09:41:39.920Z,26.73
2022-08-02T09:50:49.557Z,26.86
2022-08-02T09:53:24.543Z,26.64
2022-08-02T09:56:05.169Z,26.75
2022-08-02T09:58:39.273Z,26.67
2022-08-02T10:01:19.073Z,26.76
2022-08-02T10:04:04.082Z,26.97
2022-08-02T10:06:37.201Z,26.85
2022-08-02T10:09:13.834Z,26.78
2022-08-02T10:11:46.884Z,27.13
2022-08-02T10:14:35.691Z,27.59
2022-08-02T10:17:10.040Z,27.54
2022-08-02T10:26:01.423Z,27.69
2022-08-02T10:28:32.855Z,27.58
2022-08-02T10:31:12.098Z,27.39
2022-08-02T10:33:42.138Z,26.82
2022-08-02T10:36:21.026Z,27.18
2022-08-02T10:38:54.645Z,27.43
2022-08-02T10:41:49.674Z,28.16
2022-08-02T10:44:41.324Z,28.77
2022-08-02T10:47:27.305Z,29.81
2022-08-02T10:50:04.080Z,29.60
2022-08-02T10:52:34.893Z,29.95
2022-08-02T10:58:39.515Z,29.29
2022-08-02T11:01:38.795Z,28.98
2022-08-02T11:04:10.683Z,28.57
2022-08-02T11:07:00.576Z,27.87
2022-08-02T11:09:33.853Z,27.71
2022-08-02T11:12:10.245Z,27.47
2022-08-02T11:14:42.348Z,27.85
2022-08-02T11:17:17.360Z,28.24
2022-08-02T11:20:18.289Z,28.98
2022-08-02T11:22:49.325Z,30.22
2022-08-02T11:26:00.928Z,30.93
2022-08-02T11:28:04.801Z,30.73
2022-08-02T11:30:33.815Z,31.00
2022-08-02T11:33:06.825Z,31.20
2022-08-02T11:35:42.917Z,30.09
2022-08-02T11:38:25.115Z,29.80
2022-08-02T11:40:57.376Z,29.24
2022-08-02T11:43:28.823Z,28.88
2022-08-02T11:45:57.794Z,28.50
2022-08-02T11:48:38.414Z,28.21
2022-08-02T11:51:11.933Z,28.40
2022-08-02T11:53:52.105Z,28.22
2022-08-02T11:56:31.056Z,28.06
2022-08-02T11:59:14.895Z,28.03
2022-08-02T12:01:46.589Z,27.60
2022-08-02T12:04:18.612Z,28.06
2022-08-02T12:06:56.038Z,28.37
2022-08-02T12:09:27.020Z,27.96
2022-08-02T12:12:15.906Z,28.10
2022-08-02T12:14:45.383Z,28.39
2022-08-02T12:17:32.050Z,27.64
2022-08-02T12:20:07.080Z,27.99
2022-08-02T12:22:42.033Z,27.86
2022-08-02T12:25:33.640Z,27.83
2022-08-02T12:27:53.331Z,28.06
2022-08-02T12:30:27.771Z,28.08
2022-08-02T12:32:54.648Z,28.01
2022-08-02T12:35:29.324Z,27.86
2022-08-02T12:37:58.043Z,27.84
2022-08-02T12:40:43.646Z,27.98
2022-08-02T12:43:20.483Z,28.22
2022-08-02T12:45:55.954Z,28.74
2022-08-02T12:48:52.286Z,28.95
2022-08-02T12:51:56.391Z,28.72
2022-08-02T12:54:27.431Z,28.70
2022-08-02T12:56:54.871Z,28.68
2022-08-02T12:59:38.791Z,28.78
2022-08-02T13:02:11.817Z,28.58
2022-08-02T13:04:50.099Z,29.22
2022-08-02T13:07:19.015Z,29.47
2022-08-02T13:09:49.383Z,29.82
2022-08-02T13:12:18.535Z,29.41
2022-08-02T13:14:47.694Z,29.16
2022-08-02T13:17:16.490Z,29.55
2022-08-02T13:19:51.048Z,29.83
2022-08-02T13:22:25.564Z,29.84
2022-08-02T13:25:07.357Z,29.77
2022-08-02T13:27:59.228Z,29.47
2022-08-02T13:30:26.892Z,29.07
2022-08-02T13:33:01.287Z,28.77
2022-08-02T13:38:24.561Z,28.44
2022-08-02T13:41:23.258Z,28.14
2022-08-02T13:44:16.978Z,28.31
2022-08-02T13:47:01.359Z,28.52
2022-08-02T13:49:38.502Z,28.27
2022-08-02T13:52:04.101Z,28.74
2022-08-02T13:54:36.113Z,28.81
2022-08-02T13:57:08.477Z,29.48
2022-08-02T13:59:57.457Z,29.55
2022-08-02T14:02:11.082Z,29.82
2022-08-02T14:04:47.098Z,29.72
2022-08-02T14:07:16.810Z,29.15
2022-08-02T14:09:45.530Z,28.51
2022-08-02T14:12:14.784Z,28.85
2022-08-02T14:14:44.404Z,28.59
2022-08-02T14:17:13.879Z,28.87
2022-08-02T14:19:44.357Z,28.98
2022-08-02T14:22:13.072Z,29.03
2022-08-02T14:24:42.239Z,29.23
2022-08-02T14:27:11.386Z,29.37
2022-08-02T14:29:40.099Z,29.21
2022-08-02T14:32:09.011Z,30.05
2022-08-02T14:34:37.780Z,30.63
2022-08-02T14:37:06.508Z,31.17
2022-08-02T14:39:42.481Z,30.98
2022-08-02T14:42:05.527Z,31.51
2022-08-02T14:44:34.910Z,32.00
2022-08-02T14:47:05.173Z,32.39
2022-08-02T14:49:35.479Z,31.69
2022-08-02T14:52:06.708Z,32.34
2022-08-02T14:54:36.557Z,32.25
2022-08-02T14:57:05.540Z,31.39
2022-08-02T14:59:34.787Z,30.85
2022-08-02T15:02:03.487Z,31.57
2022-08-02T15:04:37.331Z,32.24
2022-08-02T15:07:04.246Z,30.77
2022-08-02T15:09:32.994Z,30.26
2022-08-02T15:12:05.342Z,29.87
2022-08-02T15:14:34.348Z,29.83
2022-08-02T15:17:03.021Z,29.84
2022-08-02T15:19:56.788Z,29.70
2022-08-02T15:22:03.808Z,29.55
2022-08-02T15:24:32.426Z,29.51
2022-08-02T15:27:01.025Z,29.19
2022-08-02T15:29:29.929Z,29.06
2022-08-02T15:31:58.664Z,29.46
2022-08-02T15:34:28.980Z,29.67
2022-08-02T15:36:57.601Z,29.53
2022-08-02T15:39:26.399Z,29.32
2022-08-02T15:41:55.151Z,29.25
2022-08-02T15:44:25.553Z,29.69
2022-08-02T15:46:54.523Z,30.00
2022-08-02T15:49:24.736Z,30.20
2022-08-02T15:51:54.291Z,30.43
2022-08-02T15:54:22.991Z,31.85
2022-08-02T15:56:52.713Z,33.51
2022-08-02T15:59:21.333Z,33.72
2022-08-02T16:01:50.558Z,32.90
2022-08-02T16:04:19.245Z,33.14
2022-08-02T16:06:48.204Z,33.44
2022-08-02T16:09:16.791Z,32.89
2022-08-02T16:11:45.406Z,32.30
2022-08-02T16:14:14.030Z,31.15
2022-08-02T16:16:43.793Z,30.93
2022-08-02T16:19:46.240Z,31.42
2022-08-02T16:21:43.323Z,30.54
2022-08-02T16:24:12.030Z,29.90
2022-08-02T16:26:41.216Z,29.28
2022-08-02T16:29:09.954Z,28.79
2022-08-02T16:31:42.836Z,28.58
2022-08-02T16:34:11.200Z,28.47
2022-08-02T16:36:39.935Z,28.08
2022-08-02T16:39:08.561Z,28.04
2022-08-02T16:41:50.189Z,27.70
2022-08-02T16:44:09.067Z,27.58
2022-08-02T16:46:38.583Z,27.45
2022-08-02T16:50:05.673Z,27.36
2022-08-02T16:51:40.950Z,27.31
2022-08-02T16:54:09.671Z,27.09
2022-08-02T16:56:38.299Z,27.08
2022-08-02T17:02:11.764Z,27.00
2022-08-02T17:04:09.874Z,27.07
2022-08-02T17:06:38.777Z,26.92
2022-08-02T17:09:09.233Z,26.91
2022-08-02T17:11:45.385Z,26.84
2022-08-02T17:14:09.223Z,26.66
2022-08-02T17:16:39.288Z,26.63
2022-08-02T17:19:12.102Z,26.61
2022-08-02T17:21:40.832Z,26.72
2022-08-02T17:24:09.511Z,26.79
2022-08-02T17:26:46.242Z,26.76
2022-08-02T17:29:17.694Z,26.65
2022-08-02T17:32:05.326Z,26.64
2022-08-02T17:34:17.830Z,26.55
2022-08-02T17:36:49.687Z,26.39
2022-08-02T17:39:18.712Z,26.09
2022-08-02T17:41:50.519Z,25.94
2022-08-02T17:44:37.362Z,25.76
2022-08-02T17:46:52.464Z,25.61
2022-08-02T17:49:27.172Z,25.46
2022-08-02T17:52:48.723Z,25.27
2022-08-02T17:54:36.075Z,25.17
2022-08-02T17:57:05.079Z,25.03
2022-08-02T17:59:42.077Z,25.02
2022-08-02T18:02:07.791Z,24.97
2022-08-02T18:04:38.210Z,24.83
2022-08-02T18:07:13.218Z,24.72
2022-08-02T18:09:45.423Z,24.68
2022-08-02T18:12:21.310Z,24.66
2022-08-02T18:14:51.893Z,24.53
2022-08-02T18:17:23.442Z,24.44
2022-08-02T18:20:04.571Z,24.35
2022-08-02T18:22:27.126Z,24.27
2022-08-02T18:25:09.532Z,24.11
2022-08-02T18:27:32.733Z,24.07
2022-08-02T18:30:08.304Z,24.08
2022-08-02T18:33:54.465Z,23.93
2022-08-02T18:35:10.438Z,23.76
2022-08-02T18:37:48.998Z,23.69
2022-08-02T18:40:20.487Z,23.63
2022-08-02T18:43:03.316Z,23.55
2022-08-02T18:48:21.824Z,23.33
2022-08-02T18:50:54.799Z,23.18
2022-08-02T18:53:41.202Z,23.07
2022-08-02T18:56:03.874Z,22.98
2022-08-02T18:58:37.721Z,22.92
2022-08-02T19:01:21.644Z,22.77
2022-08-02T19:03:40.244Z,22.63
2022-08-02T19:06:11.947Z,22.62
2022-08-02T19:08:41.097Z,22.62
2022-08-02T19:11:17.463Z,22.59
2022-08-02T19:13:47.723Z,22.51
2022-08-02T19:16:16.607Z,22.51
2022-08-02T19:18:45.873Z,22.43
2022-08-02T19:21:15.647Z,22.36
2022-08-02T19:23:54.236Z,22.35
2022-08-02T19:26:18.924Z,22.30
2022-08-02T19:28:50.701Z,22.27
2022-08-02T19:31:23.159Z,22.22
2022-08-02T19:34:07.165Z,22.21
2022-08-02T19:36:32.001Z,22.17
2022-08-02T19:39:08.891Z,22.11
2022-08-02T19:41:52.880Z,22.02
2022-08-02T19:44:45.165Z,21.94
2022-08-02T19:47:21.691Z,21.97
2022-08-02T19:49:54.992Z,21.93
2022-08-02T19:56:01.588Z,21.93
2022-08-02T19:57:48.697Z,21.73
2022-08-02T20:00:21.421Z,21.75
2022-08-02T20:02:51.175Z,21.76
2022-08-02T20:05:24.006Z,21.68
2022-08-02T20:07:56.705Z,21.64
2022-08-02T20:10:26.844Z,21.60
2022-08-02T20:12:58.023Z,20.99
2022-08-02T20:15:56.183Z,21.40
2022-08-02T20:18:05.077Z,21.51
2022-08-02T20:20:37.013Z,21.43
2022-08-02T20:23:33.981Z,21.31
2022-08-02T20:26:02.365Z,21.18
2022-08-02T20:28:32.194Z,21.13
2022-08-02T20:31:07.312Z,21.17
2022-08-02T20:33:34.198Z,21.21
2022-08-02T20:36:05.065Z,21.20
2022-08-02T20:38:35.630Z,21.18
2022-08-02T20:41:09.908Z,21.12
2022-08-02T20:43:43.036Z,21.14
2022-08-02T20:46:13.911Z,21.03
2022-08-02T20:48:46.756Z,21.03
2022-08-02T20:51:30.426Z,20.92
2022-08-02T20:53:56.098Z,20.72
2022-08-02T20:56:37.576Z,21.00
2022-08-02T20:59:24.609Z,20.87
2022-08-02T21:02:04.487Z,20.83
2022-08-02T21:04:44.382Z,20.82
2022-08-02T21:07:19.301Z,20.72
2022-08-02T21:12:30.237Z,20.70
2022-08-02T21:15:05.648Z,20.64
2022-08-02T21:20:29.220Z,20.63
2022-08-02T21:22:58.632Z,20.56
2022-08-02T21:25:42.393Z,20.46
2022-08-02T21:28:03.010Z,20.38
2022-08-02T21:30:34.915Z,20.42
2022-08-02T21:33:57.869Z,20.47
2022-08-02T21:35:59.749Z,20.39
2022-08-02T21:38:48.708Z,20.33
2022-08-02T21:41:39.901Z,20.35
2022-08-02T21:43:54.750Z,20.32
2022-08-02T21:46:44.480Z,20.25
2022-08-02T21:49:16.355Z,20.23
2022-08-02T21:51:49.837Z,20.18
2022-08-02T21:54:46.043Z,20.12
2022-08-02T21:57:20.445Z,20.06
2022-08-02T21:59:57.626Z,19.94
2022-08-02T22:02:32.772Z,19.99
2022-08-02T22:05:13.370Z,20.03
2022-08-02T22:07:47.293Z,19.97
2022-08-02T22:10:22.547Z,19.96
2022-08-02T22:12:54.913Z,19.93
2022-08-02T22:15:36.154Z,19.95
2022-08-02T22:18:00.802Z,20.04
2022-08-02T22:20:29.678Z,19.99
2022-08-02T22:22:58.622Z,19.87
2022-08-02T22:25:36.667Z,19.73
2022-08-02T22:28:36.328Z,19.68
2022-08-02T22:30:30.398Z,19.66
2022-08-02T22:33:16.541Z,19.65
2022-08-02T22:35:46.043Z,19.58
2022-08-02T22:38:18.535Z,19.65
2022-08-02T22:40:46.469Z,19.64
2022-08-02T22:43:15.909Z,19.65
2022-08-02T22:45:45.798Z,19.67
2022-08-02T22:48:15.276Z,19.57
2022-08-02T22:50:44.287Z,19.49
2022-08-02T22:53:13.066Z,19.46
2022-08-02T22:55:43.521Z,19.44
2022-08-02T22:58:12.155Z,19.38
2022-08-02T22:58:35.806Z,27.03
2022-08-02T22:58:45.465Z,23.53
2022-08-02T23:00:41.845Z,19.38
2022-08-02T23:03:10.463Z,19.30
2022-08-02T23:05:41.198Z,19.30
2022-08-02T23:08:09.585Z,19.23
2022-08-02T23:10:38.745Z,19.17
2022-08-02T23:13:07.481Z,19.11
2022-08-02T23:15:55.700Z,19.09
2022-08-02T23:18:42.489Z,19.07
2022-08-02T23:22:00.819Z,19.01
2022-08-02T23:23:50.722Z,18.93
2022-08-02T23:26:19.487Z,18.91
2022-08-02T23:28:48.265Z,18.85
2022-08-02T23:31:38.147Z,18.83
2022-08-02T23:34:07.188Z,18.85
2022-08-02T23:36:38.225Z,18.78
2022-08-02T23:39:08.661Z,18.75
2022-08-02T23:41:37.422Z,18.77
2022-08-02T23:44:14.879Z,18.76
2022-08-02T23:46:47.462Z,18.73
2022-08-02T23:49:17.343Z,18.79
2022-08-02T23:51:47.861Z,18.79
2022-08-02T23:54:16.581Z,18.83
2022-08-02T23:56:45.799Z,18.76
2022-08-02T23:59:14.563Z,18.66
